Petersburg, New York
Current Conditions -  °F | °C
As of 6:52 PM on Friday 21 Nov 2014 (Local Time) from KAQW Reporting Station
Clear Clear  
Wind Chill: 13°   Ceiling: Unl
Heat Index: 24°   Visibility: 10mi
Dew Point:   Wind: 12mph
Humidity: 51%   Direction: 260°W
Pressure: 30.38"   Gusts: NA
Location:  42.75°N, 73.35°W
Report Text: KAQW 212352Z AUTO 26010KT 10SM CLR M04/M13 A3038 RMK AO2 SLP300 60000 T10441133 11011 21044 51033
Loading
Personal Weather Stations






























Interactive Weather Map New forecast layout! Learn more

10-Day Weather Forecast

Advertisements
Track Severe Weather on mobile